Time;durP1;ratioP1;P1;durP2;ratioP2;P2;SDS_P1;SDS_P2;PMS_P1;PMS_P2;Temp;Humidity;BMP_temperature;BMP_pressure;BME280_temperature;BME280_humidity;BME280_pressure;Samples;Min_cycle;Max_cycle;Signal;HPM_P1;HPM_P2
2023/12/26 00:00:53;;;;;;;6.15;2.28;;;10.70;99.90;;;;;;5027455;28;20079;-62
2023/12/26 00:03:19;;;;;;;7.82;2.17;;;10.70;99.90;;;;;;5039707;28;20064;-61
2023/12/26 00:05:45;;;;;;;6.18;2.50;;;10.80;99.90;;;;;;5035444;28;20497;-62
2023/12/26 00:08:10;;;;;;;3.92;1.08;;;10.80;99.90;;;;;;5032243;28;20127;-61
2023/12/26 00:10:36;;;;;;;4.68;1.10;;;10.80;99.90;;;;;;5039498;28;20048;-61
2023/12/26 00:13:03;;;;;;;8.85;1.40;;;10.80;99.90;;;;;;5041617;28;20110;-61
2023/12/26 00:15:30;;;;;;;3.95;1.27;;;10.80;99.90;;;;;;5040148;28;20051;-61
2023/12/26 00:17:56;;;;;;;5.15;1.15;;;10.80;99.90;;;;;;5054324;28;20083;-61
2023/12/26 00:20:21;;;;;;;4.82;1.20;;;10.80;99.90;;;;;;5025533;28;20484;-61
2023/12/26 00:22:47;;;;;;;3.55;1.25;;;10.80;99.90;;;;;;5036575;28;20044;-62
2023/12/26 00:25:13;;;;;;;8.57;1.40;;;10.80;99.90;;;;;;5025332;28;20036;-62
2023/12/26 00:27:40;;;;;;;5.57;0.90;;;10.80;99.90;;;;;;5036985;28;20037;-61
2023/12/26 00:30:08;;;;;;;6.85;1.30;;;10.80;99.90;;;;;;5037700;28;20095;-61
2023/12/26 00:32:34;;;;;;;6.65;1.42;;;10.80;99.90;;;;;;5039770;28;20548;-62
2023/12/26 00:35:00;;;;;;;9.15;1.60;;;10.80;99.90;;;;;;5048145;28;20045;-62
2023/12/26 00:37:26;;;;;;;7.55;1.63;;;10.80;99.90;;;;;;5039158;28;20044;-62
2023/12/26 00:39:52;;;;;;;6.88;1.55;;;10.80;99.90;;;;;;5037119;28;20046;-62
2023/12/26 00:42:18;;;;;;;9.55;1.60;;;10.80;99.90;;;;;;5026562;28;20044;-61
2023/12/26 00:44:44;;;;;;;8.20;1.77;;;10.80;99.90;;;;;;5022754;28;20067;-62
2023/12/26 00:47:10;;;;;;;13.10;2.40;;;10.80;99.90;;;;;;5057192;28;20132;-62
2023/12/26 00:49:36;;;;;;;10.65;1.60;;;10.80;99.90;;;;;;5049707;28;20044;-62
2023/12/26 00:52:01;;;;;;;18.15;2.05;;;10.80;99.90;;;;;;5027494;28;20055;-62
2023/12/26 00:54:27;;;;;;;17.60;2.90;;;10.80;99.90;;;;;;5045368;28;20056;-62
2023/12/26 00:56:53;;;;;;;18.35;2.22;;;10.80;99.90;;;;;;5036656;28;20078;-62
2023/12/26 00:59:19;;;;;;;17.65;2.50;;;10.80;99.90;;;;;;5040811;28;20048;-62
2023/12/26 01:01:44;;;;;;;14.35;3.10;;;10.80;99.90;;;;;;5024545;28;20036;-62
2023/12/26 01:04:10;;;;;;;10.32;2.00;;;10.70;99.90;;;;;;5040291;28;20044;-62
2023/12/26 01:06:36;;;;;;;18.33;2.45;;;10.70;99.90;;;;;;5024265;28;20050;-62
2023/12/26 01:09:02;;;;;;;13.38;2.53;;;10.70;99.90;;;;;;5039047;28;20036;-62
2023/12/26 01:11:31;;;;;;;16.35;2.53;;;10.70;99.90;;;;;;5037772;28;20053;-62
2023/12/26 01:13:56;;;;;;;18.02;2.92;;;10.70;99.90;;;;;;5034609;28;20545;-62
2023/12/26 01:16:27;;;;;;;13.93;2.40;;;10.70;99.90;;;;;;5037023;28;20044;-62
2023/12/26 01:18:53;;;;;;;15.15;2.33;;;10.70;99.90;;;;;;5025326;28;20291;-62
2023/12/26 01:21:18;;;;;;;13.18;1.92;;;10.60;99.90;;;;;;5021277;28;20048;-62
2023/12/26 01:23:44;;;;;;;17.13;2.80;;;10.60;99.90;;;;;;5038518;28;20045;-62
2023/12/26 01:26:10;;;;;;;13.27;2.17;;;10.60;99.90;;;;;;5022713;28;20075;-62
2023/12/26 01:28:36;;;;;;;13.95;2.50;;;10.60;99.90;;;;;;5023937;28;20040;-62
2023/12/26 01:31:01;;;;;;;17.73;2.55;;;10.60;99.90;;;;;;5037620;28;20041;-62
2023/12/26 01:33:27;;;;;;;17.17;4.10;;;10.50;99.90;;;;;;5033752;28;20087;-62
2023/12/26 01:35:53;;;;;;;28.85;2.92;;;10.60;99.90;;;;;;5055256;28;20058;-62
2023/12/26 01:38:19;;;;;;;18.70;2.58;;;10.50;99.90;;;;;;5038273;28;21228;-62
2023/12/26 01:40:44;;;;;;;13.88;2.85;;;10.50;99.90;;;;;;5028034;28;20039;-62
2023/12/26 01:43:10;;;;;;;17.48;2.25;;;10.50;99.90;;;;;;5040340;28;20036;-62
2023/12/26 01:45:36;;;;;;;14.93;2.80;;;10.50;99.90;;;;;;5039440;28;20126;-62
2023/12/26 01:48:05;;;;;;;16.02;2.65;;;10.50;99.90;;;;;;5041464;28;20048;-62
2023/12/26 01:50:32;;;;;;;20.75;2.65;;;10.50;99.90;;;;;;5058243;28;20080;-62
2023/12/26 01:52:58;;;;;;;17.02;4.00;;;10.50;99.90;;;;;;5043619;28;20510;-62
2023/12/26 01:55:24;;;;;;;20.90;2.88;;;10.50;99.90;;;;;;5043884;28;20049;-62
2023/12/26 01:57:53;;;;;;;15.65;3.13;;;10.50;99.90;;;;;;5028368;28;20064;-62
2023/12/26 02:00:19;;;;;;;17.08;2.83;;;10.50;99.90;;;;;;5047453;28;20056;-62
2023/12/26 02:02:45;;;;;;;14.68;3.13;;;10.40;99.90;;;;;;5033338;28;20048;-62
2023/12/26 02:05:12;;;;;;;18.80;2.80;;;10.50;99.90;;;;;;5028015;28;20083;-62
2023/12/26 02:07:39;;;;;;;23.85;3.28;;;10.50;99.90;;;;;;5054188;28;20049;-62
2023/12/26 02:10:06;;;;;;;15.90;2.92;;;10.40;99.90;;;;;;5028649;28;20792;-61
2023/12/26 02:12:32;;;;;;;17.75;2.30;;;10.50;99.90;;;;;;5026691;28;20119;-62
2023/12/26 02:14:58;;;;;;;14.55;2.53;;;10.40;99.90;;;;;;5042573;28;20044;-62
2023/12/26 02:17:25;;;;;;;17.50;4.28;;;10.40;99.90;;;;;;5037714;28;20051;-62
2023/12/26 02:19:51;;;;;;;10.65;2.50;;;10.40;99.90;;;;;;5044482;28;20055;-62
2023/12/26 02:22:17;;;;;;;12.48;3.22;;;10.40;99.90;;;;;;5041282;28;20041;-62
2023/12/26 02:24:44;;;;;;;15.32;2.47;;;10.30;99.90;;;;;;5045863;28;20045;-62
2023/12/26 02:27:39;;;;;;;12.63;3.50;;;10.30;99.90;;;;;;5045315;28;20517;-62
2023/12/26 02:30:09;;;;;;;11.75;2.42;;;10.30;99.90;;;;;;5020011;28;20053;-62
2023/12/26 02:32:37;;;;;;;10.43;2.22;;;10.30;99.90;;;;;;5041299;28;20032;-62
2023/12/26 02:35:05;;;;;;;13.27;2.92;;;10.20;99.90;;;;;;5032644;28;20569;-62
2023/12/26 02:37:31;;;;;;;14.98;2.40;;;10.30;99.90;;;;;;5043982;28;20055;-62
2023/12/26 02:39:57;;;;;;;17.65;2.55;;;10.20;99.90;;;;;;5026900;28;20412;-62
2023/12/26 02:42:29;;;;;;;19.60;2.65;;;10.20;99.90;;;;;;5040666;28;20127;-62
2023/12/26 02:44:56;;;;;;;12.05;2.80;;;10.20;99.90;;;;;;5041080;28;20169;-62
2023/12/26 02:47:22;;;;;;;12.40;3.20;;;10.20;99.90;;;;;;5043548;28;20603;-62
2023/12/26 02:49:47;;;;;;;10.80;2.42;;;10.10;99.90;;;;;;5041190;28;20148;-62
2023/12/26 02:52:13;;;;;;;14.90;2.08;;;10.10;99.90;;;;;;5041508;28;20041;-62
2023/12/26 02:54:39;;;;;;;13.85;2.38;;;10.10;99.90;;;;;;5044779;28;20497;-62
2023/12/26 02:57:05;;;;;;;18.05;3.92;;;10.00;99.90;;;;;;5025490;28;20493;-62
2023/12/26 02:59:30;;;;;;;13.25;2.38;;;10.00;99.90;;;;;;5033794;28;20128;-62
2023/12/26 03:01:57;;;;;;;12.43;2.17;;;10.00;99.90;;;;;;5045905;28;20282;-62
2023/12/26 03:04:23;;;;;;;17.50;2.72;;;10.00;99.90;;;;;;5045066;28;20070;-62
2023/12/26 03:06:49;;;;;;;17.48;3.35;;;10.00;99.90;;;;;;5041939;28;20037;-62
2023/12/26 03:09:15;;;;;;;15.57;2.95;;;10.00;99.90;;;;;;5040738;28;20498;-62
2023/12/26 03:11:40;;;;;;;16.83;3.63;;;9.90;99.90;;;;;;5041678;28;20174;-62
2023/12/26 03:14:06;;;;;;;15.85;2.88;;;9.90;99.90;;;;;;5048489;28;20341;-61
2023/12/26 03:16:32;;;;;;;14.02;3.00;;;9.80;99.90;;;;;;5026286;28;20520;-62
2023/12/26 03:18:58;;;;;;;14.23;2.75;;;9.80;99.90;;;;;;5040258;28;20084;-62
2023/12/26 03:21:23;;;;;;;16.42;3.03;;;9.70;99.90;;;;;;5040140;28;20048;-62
2023/12/26 03:23:51;;;;;;;15.10;2.80;;;9.70;99.90;;;;;;5042587;28;20052;-62
2023/12/26 03:26:16;;;;;;;13.02;2.67;;;9.60;99.90;;;;;;5022120;28;20045;-62
2023/12/26 03:28:42;;;;;;;17.00;3.53;;;9.60;99.90;;;;;;5039425;28;20064;-62
2023/12/26 03:31:08;;;;;;;21.42;3.67;;;9.60;99.90;;;;;;5042048;28;20044;-62
2023/12/26 03:33:35;;;;;;;22.05;3.33;;;9.50;99.90;;;;;;5038262;28;20105;-61
2023/12/26 03:36:02;;;;;;;23.05;3.92;;;9.50;99.90;;;;;;5016268;28;20063;-62
2023/12/26 03:38:28;;;;;;;17.80;3.17;;;9.50;99.90;;;;;;5042495;28;20048;-62
2023/12/26 03:40:55;;;;;;;13.95;2.85;;;9.40;99.90;;;;;;5043468;28;20446;-62
2023/12/26 03:43:20;;;;;;;23.90;4.93;;;9.40;99.90;;;;;;5041760;28;20048;-62
2023/12/26 03:45:47;;;;;;;24.38;3.95;;;9.30;99.90;;;;;;5023712;28;20042;-61
2023/12/26 03:48:13;;;;;;;18.70;3.00;;;9.30;99.90;;;;;;5027000;28;20060;-61
2023/12/26 03:50:39;;;;;;;23.85;4.63;;;9.30;99.90;;;;;;5036518;28;20481;-61
2023/12/26 03:53:05;;;;;;;19.92;5.25;;;9.30;99.90;;;;;;5039020;28;20090;-62
2023/12/26 03:55:30;;;;;;;17.05;3.55;;;9.40;99.90;;;;;;5036805;28;20041;-62
2023/12/26 03:57:56;;;;;;;19.40;3.78;;;9.30;99.90;;;;;;5028480;28;20130;-62
2023/12/26 04:00:22;;;;;;;23.80;3.47;;;9.30;99.90;;;;;;5024421;28;20556;-62
2023/12/26 04:02:48;;;;;;;17.05;2.85;;;9.30;99.90;;;;;;5035929;28;20048;-62
2023/12/26 04:05:14;;;;;;;23.40;3.53;;;9.20;99.90;;;;;;5041167;28;20453;-62
2023/12/26 04:07:40;;;;;;;20.33;3.67;;;9.30;99.90;;;;;;5023033;28;20517;-62
2023/12/26 04:10:06;;;;;;;19.85;3.55;;;9.30;99.90;;;;;;5054568;28;20033;-62
2023/12/26 04:12:33;;;;;;;16.77;2.97;;;9.30;99.90;;;;;;5043713;28;20075;-62
2023/12/26 04:14:59;;;;;;;19.77;3.08;;;9.30;99.90;;;;;;5010849;28;20461;-62
2023/12/26 04:17:25;;;;;;;18.40;3.00;;;9.20;99.90;;;;;;5057703;28;20562;-62
2023/12/26 04:19:51;;;;;;;16.23;3.13;;;9.20;99.90;;;;;;5041602;28;20397;-62
2023/12/26 04:22:17;;;;;;;16.90;2.47;;;9.10;99.90;;;;;;5021663;28;20134;-62
2023/12/26 04:24:42;;;;;;;20.17;2.97;;;9.10;99.90;;;;;;5039586;28;20497;-62
2023/12/26 04:27:08;;;;;;;22.63;3.85;;;9.10;99.90;;;;;;5033548;28;20043;-62
2023/12/26 04:29:34;;;;;;;22.00;3.10;;;9.10;99.90;;;;;;5038508;28;20501;-62
2023/12/26 04:32:00;;;;;;;16.98;3.45;;;9.00;99.90;;;;;;5039708;28;20036;-62
2023/12/26 04:34:25;;;;;;;17.20;3.08;;;9.00;99.90;;;;;;5041315;28;20033;-62
2023/12/26 04:36:51;;;;;;;17.80;3.00;;;9.00;99.90;;;;;;5026126;28;20040;-62
2023/12/26 04:39:18;;;;;;;18.77;3.50;;;9.00;99.90;;;;;;5034237;28;20066;-62
2023/12/26 04:41:46;;;;;;;15.13;3.10;;;9.00;99.90;;;;;;5038686;28;20162;-62
2023/12/26 04:44:12;;;;;;;20.65;3.40;;;9.00;99.90;;;;;;5038963;28;20930;-62
2023/12/26 04:46:38;;;;;;;18.48;3.50;;;9.00;99.90;;;;;;5050603;28;20136;-62
2023/12/26 04:49:04;;;;;;;20.73;3.53;;;9.00;99.90;;;;;;5040296;28;20040;-62
2023/12/26 04:51:30;;;;;;;17.52;3.28;;;9.00;99.90;;;;;;5038329;28;20196;-62
2023/12/26 04:53:56;;;;;;;22.92;3.17;;;9.00;99.90;;;;;;5035470;28;20062;-62
2023/12/26 04:56:22;;;;;;;22.77;3.72;;;9.00;99.90;;;;;;5056787;28;20412;-62
2023/12/26 04:58:51;;;;;;;10.73;2.45;;;9.00;99.90;;;;;;5045242;28;20105;-62
2023/12/26 05:01:17;;;;;;;12.27;2.38;;;9.00;99.90;;;;;;5026344;28;20106;-62
2023/12/26 05:03:44;;;;;;;21.67;3.30;;;9.00;99.90;;;;;;5039177;28;20028;-62
2023/12/26 05:06:10;;;;;;;17.33;2.50;;;9.10;99.90;;;;;;5041801;28;20087;-62
2023/12/26 05:08:40;;;;;;;17.48;3.28;;;9.10;99.90;;;;;;5025821;28;20037;-62
2023/12/26 05:11:07;;;;;;;15.65;3.42;;;9.20;99.90;;;;;;5034715;28;20730;-62
2023/12/26 05:13:36;;;;;;;14.65;2.67;;;9.20;99.90;;;;;;5038691;28;20040;-62
2023/12/26 05:16:03;;;;;;;22.00;3.28;;;9.30;99.90;;;;;;5017173;28;20485;-62
2023/12/26 05:18:29;;;;;;;16.45;3.08;;;9.30;99.90;;;;;;5041649;28;20490;-62
2023/12/26 05:20:56;;;;;;;11.30;2.50;;;9.30;99.90;;;;;;5038115;28;20059;-62
2023/12/26 05:23:22;;;;;;;17.10;3.22;;;9.30;99.90;;;;;;5024872;28;20056;-62
2023/12/26 05:25:48;;;;;;;13.30;2.80;;;9.30;99.90;;;;;;5045253;28;20052;-62
2023/12/26 05:28:13;;;;;;;11.68;2.15;;;9.30;99.90;;;;;;5041444;28;20041;-62
2023/12/26 05:30:39;;;;;;;22.15;3.72;;;9.30;99.90;;;;;;5039888;28;20040;-62
2023/12/26 05:33:05;;;;;;;12.65;2.42;;;9.40;99.90;;;;;;5040865;28;20318;-62
2023/12/26 05:35:30;;;;;;;18.00;2.72;;;9.30;99.90;;;;;;5033726;28;20048;-62
2023/12/26 05:37:56;;;;;;;22.92;3.40;;;9.40;99.90;;;;;;5040215;28;20169;-62
2023/12/26 05:40:22;;;;;;;14.10;2.28;;;9.40;99.90;;;;;;5037799;28;20040;-62
2023/12/26 05:42:48;;;;;;;14.15;2.45;;;9.40;99.90;;;;;;5054187;28;20076;-61
2023/12/26 05:45:14;;;;;;;12.73;2.88;;;9.40;99.90;;;;;;5042619;28;20473;-62
2023/12/26 05:47:39;;;;;;;15.05;2.85;;;9.40;99.90;;;;;;5005095;28;20512;-61
2023/12/26 05:50:06;;;;;;;16.85;3.30;;;9.40;99.90;;;;;;5041076;28;20123;-62
2023/12/26 05:52:32;;;;;;;16.42;2.85;;;9.50;99.90;;;;;;5044178;28;20128;-62
2023/12/26 05:54:57;;;;;;;16.98;2.83;;;9.50;99.90;;;;;;5050755;28;20340;-62
2023/12/26 05:57:23;;;;;;;14.38;2.88;;;9.50;99.90;;;;;;5029559;28;20040;-62
2023/12/26 05:59:49;;;;;;;13.68;3.20;;;9.50;99.90;;;;;;5030734;28;20079;-62
2023/12/26 06:02:15;;;;;;;19.85;3.00;;;9.40;99.90;;;;;;5042880;28;20568;-61
2023/12/26 06:04:41;;;;;;;15.30;2.97;;;9.40;99.90;;;;;;5040879;28;20044;-62
2023/12/26 06:07:07;;;;;;;16.98;3.13;;;9.40;99.90;;;;;;5042929;28;20431;-62
2023/12/26 06:09:34;;;;;;;16.90;3.28;;;9.30;99.90;;;;;;5041304;28;20559;-62
2023/12/26 06:11:59;;;;;;;15.32;3.28;;;9.30;99.90;;;;;;5041713;28;20465;-62
2023/12/26 06:14:25;;;;;;;18.80;3.72;;;9.20;99.90;;;;;;5044571;28;20042;-62
2023/12/26 06:16:51;;;;;;;17.13;3.53;;;9.20;99.90;;;;;;5040463;28;20055;-62
2023/12/26 06:19:17;;;;;;;19.27;3.00;;;9.10;99.90;;;;;;5038516;28;20057;-62
2023/12/26 06:21:42;;;;;;;25.08;3.83;;;9.10;99.90;;;;;;5034244;28;20101;-62
2023/12/26 06:24:09;;;;;;;18.17;2.92;;;9.10;99.90;;;;;;5041589;28;20070;-62
2023/12/26 06:26:35;;;;;;;18.65;3.38;;;9.10;99.90;;;;;;5040661;28;20048;-62
2023/12/26 06:29:00;;;;;;;17.55;4.03;;;9.00;99.90;;;;;;5052198;28;20771;-62
2023/12/26 06:31:26;;;;;;;20.02;3.38;;;9.00;99.90;;;;;;5033970;28;20260;-62
2023/12/26 06:33:52;;;;;;;19.10;3.20;;;9.00;99.90;;;;;;5053107;28;20145;-62
2023/12/26 06:36:18;;;;;;;19.38;3.70;;;9.00;99.90;;;;;;5015813;28;20051;-62
2023/12/26 06:38:43;;;;;;;16.33;3.40;;;9.00;99.90;;;;;;5031298;28;20090;-62
2023/12/26 06:41:10;;;;;;;22.85;5.43;;;9.00;99.90;;;;;;5026220;28;20440;-62
2023/12/26 06:43:37;;;;;;;20.20;3.55;;;9.00;99.90;;;;;;5046470;28;20056;-61
2023/12/26 06:46:06;;;;;;;15.20;3.85;;;9.00;99.90;;;;;;5027025;28;20052;-62
2023/12/26 06:48:32;;;;;;;31.73;5.70;;;9.00;99.90;;;;;;5026656;28;20549;-62
2023/12/26 06:50:57;;;;;;;24.67;4.35;;;9.10;99.90;;;;;;5047975;28;20044;-62
2023/12/26 06:53:23;;;;;;;20.60;4.22;;;9.10;99.90;;;;;;5022891;28;20099;-61
2023/12/26 06:55:49;;;;;;;17.95;3.60;;;9.10;99.90;;;;;;5045196;28;20068;-62
2023/12/26 06:58:15;;;;;;;19.35;4.13;;;9.10;99.90;;;;;;5035739;28;20044;-62
2023/12/26 07:00:40;;;;;;;15.95;3.53;;;9.10;99.90;;;;;;5036278;28;20044;-62
2023/12/26 07:03:08;;;;;;;17.35;3.55;;;9.10;99.90;;;;;;5004640;28;20048;-62
2023/12/26 07:05:34;;;;;;;16.58;2.97;;;9.10;99.90;;;;;;5054612;28;20364;-62
2023/12/26 07:08:00;;;;;;;16.52;3.00;;;9.10;99.90;;;;;;5051025;28;20036;-61
2023/12/26 07:10:26;;;;;;;26.63;3.78;;;9.20;99.90;;;;;;5039659;28;20044;-62
2023/12/26 07:12:51;;;;;;;16.80;3.63;;;9.10;99.90;;;;;;5031094;28;20409;-62
2023/12/26 07:15:17;;;;;;;13.60;3.17;;;9.10;99.90;;;;;;5034235;28;21063;-61
2023/12/26 07:17:43;;;;;;;23.15;3.40;;;9.10;99.90;;;;;;5037658;28;20087;-62
2023/12/26 07:20:09;;;;;;;19.05;3.15;;;9.10;99.90;;;;;;5041105;28;20525;-62
2023/12/26 07:22:35;;;;;;;27.80;4.07;;;9.10;99.90;;;;;;5038488;28;20055;-62
2023/12/26 07:25:01;;;;;;;22.90;4.45;;;9.10;99.90;;;;;;5039906;28;20045;-62
2023/12/26 07:27:26;;;;;;;18.98;3.20;;;9.10;99.90;;;;;;5023724;28;20413;-62
2023/12/26 07:29:52;;;;;;;14.95;3.38;;;9.10;99.90;;;;;;5024392;28;20143;-62
2023/12/26 07:32:20;;;;;;;20.60;3.78;;;9.10;99.90;;;;;;5022199;28;20047;-61
2023/12/26 07:34:47;;;;;;;17.83;3.28;;;9.10;99.90;;;;;;5043352;28;20040;-61
2023/12/26 07:37:13;;;;;;;15.10;2.67;;;9.10;99.90;;;;;;5038225;28;20055;-61
2023/12/26 07:39:38;;;;;;;16.13;3.33;;;9.00;99.90;;;;;;5018082;28;20412;-62
2023/12/26 07:42:04;;;;;;;15.15;3.38;;;9.00;99.90;;;;;;5026203;28;20986;-62
2023/12/26 07:44:31;;;;;;;19.92;3.75;;;9.00;99.90;;;;;;5041978;28;20044;-62
2023/12/26 07:46:57;;;;;;;18.92;2.67;;;8.90;99.90;;;;;;5023918;28;22129;-62
2023/12/26 07:49:24;;;;;;;15.43;2.97;;;8.90;99.90;;;;;;5056521;28;20037;-62
2023/12/26 07:51:50;;;;;;;19.48;4.95;;;9.00;99.90;;;;;;5038265;28;20045;-62
2023/12/26 07:54:15;;;;;;;14.00;3.00;;;8.90;99.90;;;;;;5027242;28;20044;-62
2023/12/26 07:56:41;;;;;;;22.63;3.20;;;8.90;99.90;;;;;;5031016;28;20043;-62
2023/12/26 07:59:07;;;;;;;21.77;3.63;;;9.00;99.90;;;;;;5046748;28;20413;-62
2023/12/26 08:01:33;;;;;;;22.75;3.30;;;9.00;99.90;;;;;;5040617;28;20072;-62
2023/12/26 08:03:58;;;;;;;19.40;3.88;;;9.00;99.90;;;;;;5039451;28;20040;-61
2023/12/26 08:06:24;;;;;;;27.55;3.85;;;9.00;99.90;;;;;;5026156;28;20214;-61
2023/12/26 08:08:51;;;;;;;19.77;3.17;;;9.00;99.90;;;;;;5023027;28;20043;-62
2023/12/26 08:11:17;;;;;;;27.88;4.00;;;9.00;99.90;;;;;;5022760;28;20720;-62
2023/12/26 08:13:44;;;;;;;21.15;3.65;;;9.10;99.90;;;;;;5054014;28;20052;-62
2023/12/26 08:16:09;;;;;;;16.40;3.67;;;9.10;99.90;;;;;;5051364;28;20037;-62
2023/12/26 08:18:35;;;;;;;21.60;3.58;;;9.20;99.90;;;;;;5040993;28;20509;-62
2023/12/26 08:21:02;;;;;;;22.60;4.85;;;9.10;99.90;;;;;;5033527;28;20514;-62
2023/12/26 08:23:28;;;;;;;20.80;4.10;;;9.10;99.90;;;;;;5041329;28;20047;-62
2023/12/26 08:25:55;;;;;;;15.40;3.63;;;9.10;99.90;;;;;;5055978;28;20032;-62
2023/12/26 08:28:21;;;;;;;19.00;3.33;;;9.20;99.90;;;;;;5056585;28;20799;-62
2023/12/26 08:30:46;;;;;;;18.65;4.57;;;9.10;99.90;;;;;;5038811;28;20047;-62
2023/12/26 08:33:15;;;;;;;18.45;3.05;;;9.10;99.90;;;;;;5047039;28;20048;-62
2023/12/26 08:35:41;;;;;;;23.63;4.05;;;9.20;99.90;;;;;;5036653;28;20115;-62
2023/12/26 08:38:07;;;;;;;21.17;5.38;;;9.20;99.90;;;;;;5038301;28;20048;-61
2023/12/26 08:40:32;;;;;;;22.08;3.20;;;9.20;99.90;;;;;;5025685;28;20048;-62
2023/12/26 08:42:58;;;;;;;16.65;2.95;;;9.20;99.90;;;;;;5038835;28;20570;-62
2023/12/26 08:45:24;;;;;;;19.88;3.92;;;9.20;99.90;;;;;;5036845;28;20594;-61
2023/12/26 08:47:52;;;;;;;21.70;3.78;;;9.30;99.90;;;;;;5034962;28;20600;-61
2023/12/26 08:50:19;;;;;;;17.20;3.10;;;9.30;99.90;;;;;;5017524;28;20050;-61
2023/12/26 08:52:45;;;;;;;17.45;3.03;;;9.30;99.90;;;;;;5017284;28;20333;-61
2023/12/26 08:55:11;;;;;;;22.85;4.05;;;9.30;99.90;;;;;;5057836;28;20063;-61
2023/12/26 08:57:37;;;;;;;16.13;3.70;;;9.30;99.90;;;;;;5038894;28;20049;-61
2023/12/26 09:00:04;;;;;;;16.63;3.38;;;9.30;99.90;;;;;;5018287;28;20048;-62
2023/12/26 09:02:30;;;;;;;18.98;3.35;;;9.30;99.90;;;;;;5036941;28;20136;-62
2023/12/26 09:04:56;;;;;;;19.42;3.08;;;9.20;99.90;;;;;;5023867;28;20143;-61
2023/12/26 09:07:22;;;;;;;20.75;4.32;;;9.20;99.90;;;;;;5035126;28;20033;-62
2023/12/26 09:09:48;;;;;;;22.10;3.83;;;9.30;99.90;;;;;;5033659;28;20502;-62
2023/12/26 09:12:14;;;;;;;11.63;2.55;;;9.30;99.90;;;;;;5041728;28;20048;-62
2023/12/26 09:14:40;;;;;;;16.90;3.47;;;9.30;99.90;;;;;;5043001;28;20098;-62
2023/12/26 09:17:07;;;;;;;18.05;3.28;;;9.30;99.90;;;;;;5038577;28;20040;-62
2023/12/26 09:19:33;;;;;;;15.45;3.30;;;9.30;99.90;;;;;;5037962;28;20420;-62
2023/12/26 09:21:58;;;;;;;15.38;3.08;;;9.30;99.90;;;;;;5038002;28;20064;-61
2023/12/26 09:24:24;;;;;;;24.70;4.68;;;9.30;99.90;;;;;;5052873;28;20406;-61
2023/12/26 09:26:50;;;;;;;22.20;3.55;;;9.30;99.90;;;;;;5035618;28;20564;-62
2023/12/26 09:29:19;;;;;;;22.27;4.80;;;9.30;99.90;;;;;;5037359;28;20052;-62
2023/12/26 09:31:44;;;;;;;19.27;4.28;;;9.40;99.90;;;;;;5024162;28;20119;-62
2023/12/26 09:34:10;;;;;;;26.75;3.95;;;9.40;99.90;;;;;;5021420;28;20190;-62
2023/12/26 09:36:36;;;;;;;16.33;3.47;;;9.50;99.90;;;;;;5037762;28;20432;-62
2023/12/26 09:39:02;;;;;;;16.38;3.40;;;9.50;99.90;;;;;;5035980;28;20084;-62
2023/12/26 09:41:31;;;;;;;18.00;3.83;;;9.50;99.90;;;;;;5037717;28;20432;-62
2023/12/26 09:43:57;;;;;;;20.27;3.30;;;9.60;99.90;;;;;;5038645;28;20105;-62
2023/12/26 09:46:23;;;;;;;25.58;4.28;;;9.60;99.90;;;;;;5029837;28;20090;-62
2023/12/26 09:48:48;;;;;;;18.23;3.65;;;9.60;99.90;;;;;;5050180;28;20132;-62
2023/12/26 09:51:21;;;;;;;25.80;4.07;;;9.60;99.90;;;;;;5036137;28;20562;-62
2023/12/26 09:53:59;;;;;;;26.17;4.82;;;9.60;99.90;;;;;;5051152;28;20036;-62
2023/12/26 09:56:25;;;;;;;18.83;3.53;;;9.60;99.90;;;;;;5036263;28;20742;-62
2023/12/26 09:58:54;;;;;;;18.35;3.78;;;9.60;99.90;;;;;;5019554;28;20418;-62
2023/12/26 10:01:21;;;;;;;21.90;5.13;;;9.60;99.90;;;;;;5037619;28;20041;-62
2023/12/26 10:03:47;;;;;;;24.60;4.78;;;9.60;99.90;;;;;;5032211;28;20328;-62
2023/12/26 10:06:14;;;;;;;14.80;3.47;;;9.60;99.90;;;;;;5032565;28;20048;-62
2023/12/26 10:08:42;;;;;;;25.52;4.55;;;9.60;99.90;;;;;;5050665;28;20067;-62
2023/12/26 10:11:13;;;;;;;25.45;3.95;;;9.60;99.90;;;;;;5035780;28;20052;-62
2023/12/26 10:13:52;;;;;;;15.10;3.35;;;9.60;99.90;;;;;;5022545;28;20083;-62
2023/12/26 10:16:19;;;;;;;17.98;3.20;;;9.60;99.90;;;;;;5031620;28;20417;-62
2023/12/26 10:18:46;;;;;;;18.48;4.22;;;9.60;99.90;;;;;;5038901;28;20071;-62
2023/12/26 10:21:13;;;;;;;22.02;4.60;;;9.60;99.90;;;;;;5038436;28;20041;-62
2023/12/26 10:23:38;;;;;;;22.42;4.97;;;9.60;99.90;;;;;;5044477;28;20489;-62
2023/12/26 10:26:05;;;;;;;19.27;3.80;;;9.60;99.90;;;;;;5041009;28;20314;-62
2023/12/26 10:28:41;;;;;;;24.17;7.10;;;9.60;99.90;;;;;;5043668;28;20093;-62
2023/12/26 10:31:14;;;;;;;19.33;4.07;;;9.60;99.90;;;;;;5038759;28;20114;-62
2023/12/26 10:33:41;;;;;;;21.63;4.13;;;9.60;99.90;;;;;;5037176;28;20051;-62
2023/12/26 10:36:10;;;;;;;26.55;3.90;;;9.60;99.90;;;;;;5043697;28;20105;-62
2023/12/26 10:38:40;;;;;;;25.25;5.68;;;9.60;99.90;;;;;;5039264;28;20045;-62
2023/12/26 10:41:08;;;;;;;28.88;7.07;;;9.60;99.90;;;;;;5054350;28;20048;-62
2023/12/26 10:43:38;;;;;;;24.58;5.32;;;9.60;99.90;;;;;;5046236;28;20037;-62
2023/12/26 10:46:07;;;;;;;20.02;5.55;;;9.70;99.90;;;;;;5042864;28;20028;-62
2023/12/26 10:48:34;;;;;;;20.85;3.42;;;9.70;99.90;;;;;;5039073;28;20045;-62
2023/12/26 10:51:00;;;;;;;19.40;3.05;;;9.70;99.90;;;;;;5039613;28;20041;-62
2023/12/26 10:53:53;;;;;;;17.30;2.85;;;9.70;99.90;;;;;;5041181;28;20045;-62
2023/12/26 10:56:20;;;;;;;27.92;4.40;;;9.80;99.90;;;;;;5026271;28;20098;-62
2023/12/26 10:58:46;;;;;;;19.73;3.88;;;9.80;99.90;;;;;;5040144;28;20509;-62
2023/12/26 13:53:45;;;;;;;12.57;1.85;;;8.70;99.90;;;;;;5043309;28;20057;-63
2023/12/26 13:56:48;;;;;;;12.05;2.10;;;8.70;99.90;;;;;;5050809;28;20051;-61
2023/12/26 13:59:52;;;;;;;9.63;1.33;;;8.70;99.90;;;;;;5032373;28;20041;-61
2023/12/26 14:02:56;;;;;;;9.38;1.85;;;8.70;99.90;;;;;;5045558;28;20087;-63
2023/12/26 14:05:59;;;;;;;8.95;2.55;;;8.70;99.90;;;;;;5045260;28;20044;-63
2023/12/26 14:09:03;;;;;;;6.65;1.60;;;8.80;99.90;;;;;;5039378;28;20051;-61
2023/12/26 14:12:06;;;;;;;13.15;2.17;;;8.80;99.90;;;;;;5045781;28;20045;-63
2023/12/26 14:15:10;;;;;;;7.28;1.65;;;8.70;99.90;;;;;;5044655;28;20614;-61
2023/12/26 14:18:13;;;;;;;6.43;1.33;;;8.70;99.90;;;;;;5063535;28;20055;-62
2023/12/26 14:21:17;;;;;;;12.73;1.85;;;8.70;99.90;;;;;;5045166;28;20094;-60
2023/12/26 14:24:20;;;;;;;6.80;1.40;;;8.70;99.90;;;;;;5021659;28;20055;-62
2023/12/26 14:27:23;;;;;;;6.70;1.50;;;8.60;99.90;;;;;;5038355;28;20387;-63
2023/12/26 14:30:27;;;;;;;11.32;3.35;;;8.50;99.90;;;;;;5051366;28;20625;-63
2023/12/26 14:33:30;;;;;;;9.38;1.60;;;8.50;99.90;;;;;;5040036;28;20478;-60
2023/12/26 14:36:33;;;;;;;12.23;2.22;;;8.40;99.90;;;;;;5044505;28;20522;-63
2023/12/26 14:39:37;;;;;;;9.00;1.88;;;8.40;99.90;;;;;;5046966;28;20501;-62
2023/12/26 14:42:40;;;;;;;8.27;1.88;;;8.40;99.90;;;;;;5047877;28;20089;-60
2023/12/26 14:45:43;;;;;;;5.65;1.20;;;8.40;99.90;;;;;;5058775;28;20217;-63
2023/12/26 14:48:46;;;;;;;7.20;2.13;;;8.30;99.90;;;;;;5042592;28;20492;-61
2023/12/26 14:51:50;;;;;;;9.52;2.67;;;8.30;99.90;;;;;;5043243;28;20037;-62
2023/12/26 14:54:53;;;;;;;11.88;2.25;;;8.40;99.90;;;;;;5046968;28;20075;-62
2023/12/26 14:57:58;;;;;;;7.85;2.13;;;8.30;99.90;;;;;;5038923;28;20045;-60
2023/12/26 15:01:01;;;;;;;4.80;1.30;;;8.20;99.90;;;;;;5045608;28;20293;-61
2023/12/26 15:03:26;;;;;;;8.70;4.25;;;8.10;99.90;;;;;;5037152;28;20052;-59
2023/12/26 15:05:53;;;;;;;7.38;2.95;;;8.10;99.90;;;;;;5043294;28;20044;-62
2023/12/26 15:08:18;;;;;;;12.13;4.13;;;8.10;99.90;;;;;;5042260;28;21723;-61
2023/12/26 15:10:44;;;;;;;9.55;2.40;;;8.00;99.90;;;;;;5047060;28;20090;-59
2023/12/26 15:13:10;;;;;;;11.55;3.90;;;8.00;99.90;;;;;;5046553;28;20036;-61
2023/12/26 15:15:35;;;;;;;27.90;17.30;;;7.90;99.90;;;;;;5056525;28;20040;-61
2023/12/26 15:18:01;;;;;;;13.25;6.97;;;7.90;99.90;;;;;;5045911;28;20044;-61
2023/12/26 15:20:27;;;;;;;10.45;3.55;;;7.90;99.90;;;;;;5045287;28;20042;-61
2023/12/26 15:22:52;;;;;;;14.40;5.38;;;7.80;99.90;;;;;;5032197;28;20408;-60
2023/12/26 15:25:18;;;;;;;10.32;3.60;;;7.80;99.90;;;;;;5046914;28;20040;-60
2023/12/26 15:27:48;;;;;;;9.50;3.72;;;7.70;99.90;;;;;;5066080;28;20102;-61
2023/12/26 15:30:14;;;;;;;11.32;6.18;;;7.70;99.90;;;;;;5030723;28;20036;-58
2023/12/26 15:32:39;;;;;;;14.07;9.15;;;7.70;99.90;;;;;;5042464;28;20036;-60
2023/12/26 15:35:07;;;;;;;12.25;2.50;;;7.70;99.90;;;;;;5048613;28;20032;-61
2023/12/26 15:37:33;;;;;;;9.95;3.55;;;7.60;99.90;;;;;;5047989;28;20505;-59
2023/12/26 15:39:59;;;;;;;12.20;3.53;;;7.60;99.90;;;;;;5044109;28;20110;-61
2023/12/26 15:42:25;;;;;;;13.40;3.22;;;7.60;99.90;;;;;;5046992;28;20036;-60
2023/12/26 15:44:50;;;;;;;26.05;8.82;;;7.60;99.90;;;;;;5045001;28;20228;-62
2023/12/26 15:47:16;;;;;;;14.30;2.63;;;7.60;99.90;;;;;;5048656;28;20186;-61